VYYY/RGN METAR and TAF weather

Enter ICAO airport designator
Station Type Date Time Source
VYYY METAR 2019/08/25 13:30 UTC NOAA

VYYY 251330Z 20008KT 7000 BKN015 FEW018CB BKN100 26/25 Q1006


Station Type Date Time Source
VYYY Decoded METAR 2019/08/25 13:30 UTC NOAA

Station name not available
Aug 25, 2019 - 09:30 AM EDT / 2019.08.25 1330 UTC
Wind: from the SSW (200 degrees) at 9 MPH (8 KT):0
Visibility: 4 mile(s):0
Sky conditions: mostly cloudy
Weather: Cumulonimbus clouds observed
Temperature: 78 F (26 C)
Dew Point: 77 F (25 C)
Relative Humidity: 94%
Pressure (altimeter): 29.71 in. Hg (1006 hPa)
ob: VYYY 251330Z 20008KT 7000 BKN015 FEW018CB BKN100 26/25 Q1006
cycle: 13

Station Type Date Time Source
VYYY TAF 2019/08/25 12:39 UTC NOAA

TAF VYYY 251100Z 2512/2612 24006KT 7000 BKN015 FEW018CB BKN110
TEMPO 2512/2518 5000 -RA/-SHRA

Example: see airport list